Latest Weather Observations for Lucinda

IDQ60801

Issued at 8:32 pm EST Saturday 30 May 2015 (issued every 30 minutes, with the page automatically refreshed every 10 minutes)

About weather observations | Map of weather stations | Latest weather observations for QLD | Other Formats
Station Details ID: 032141 Name: LUCINDA POINT Lat: -18.52 Lon: 146.39 Height: 10.0 m
Data from the previous 72 hours. | See also: Recent months for locations in Queensland
Date/Time
EST
Temp
°C
App
Temp
°C
Dew
Point
Rel
Hum
%
Delta-T
°C
Wind Press
QNH
hPa
Press
MSL
hPa
Rain
since 9 am
mm
Dir
 
Spd
km/h
Gust
km/h
Spd
kts
Gust
kts
30/08:30pm 24.1 22.4 21.4 85 1.8 ESE 32 46 17 25 1017.2 1017.2 0.8
30/08:00pm 24.3 23.3 21.2 83 2.0 ESE 28 37 15 20 1016.9 1016.9 0.8
30/07:30pm 23.9 24.1 21.4 86 1.6 SE 22 39 12 21 1016.6 1016.6 0.8
30/07:00pm 24.1 24.1 21.6 86 1.7 SE 24 37 13 20 1016.5 1016.5 0.8
30/06:30pm 24.0 25.2 22.1 89 1.3 SE 19 28 10 15 1016.3 1016.3 0.8
30/06:00pm 23.9 24.8 21.6 87 1.5 ESE 19 26 10 14 1016.3 1016.2 0.8
30/05:30pm 24.5 25.6 21.2 82 2.2 ESE 17 30 9 16 1015.8 1015.8 0.8
30/05:00pm 24.2 25.2 21.7 86 1.7 SE 19 30 10 16 1015.8 1015.8 0.8
30/04:30pm 24.6 26.0 21.9 85 1.8 ESE 17 30 9 16 1015.6 1015.6 0.8
30/04:00pm 24.9 25.5 21.4 81 2.3 ESE 20 32 11 17 1015.5 1015.5 0.8
30/03:30pm 24.9 26.2 21.6 82 2.2 SE 17 26 9 14 1015.4 1015.4 0.8
30/03:00pm 24.8 25.7 21.9 84 1.9 SE 20 33 11 18 1015.4 1015.4 0.8
30/02:30pm 25.1 26.2 22.0 83 2.1 SE 19 28 10 15 1015.8 1015.8 0.8
30/02:00pm 25.0 26.4 21.9 83 2.1 SE 17 26 9 14 1016.4 1016.4 0.8
30/01:30pm 24.5 26.0 22.0 86 1.7 SE 17 28 9 15 1016.6 1016.6 0.8
30/01:00pm 24.2 25.3 21.9 87 1.5 ESE 19 35 10 19 1016.9 1016.9 0.8
30/12:30pm 23.4 25.8 22.2 93 0.8 SSE 13 20 7 11 1017.7 1017.7 0.6
30/12:00pm 23.5 25.9 22.3 93 0.8 SE 13 22 7 12 1018.0 1018.0 0.2
30/11:30am 23.3 24.4 22.3 94 0.7 S 20 22 11 12 1018.4 1018.4 0.0
30/11:00am 22.9 23.0 21.9 94 0.7 S 24 28 13 15 1018.6 1018.6 0.0
30/10:30am 22.9 23.6 21.5 92 0.9 S 20 24 11 13 1019.2 1019.2 0.0
30/10:00am 23.7 25.1 21.8 89 1.3 S 17 24 9 13 1019.7 1019.7 0.0
30/09:30am 24.7 27.1 21.6 83 2.1 SE 11 20 6 11 1019.9 1019.9 0.0
30/09:00am 24.4 26.5 21.7 85 1.8 SE 13 20 7 11 1019.8 1019.8 3.6
30/08:30am 23.9 25.3 21.8 88 1.4 SE 17 24 9 13 1019.5 1019.5 3.6
30/08:00am 24.2 25.6 21.9 87 1.5 SE 17 28 9 15 1019.1 1019.1 3.6
30/07:30am 23.8 25.6 21.9 89 1.3 SE 15 26 8 14 1018.8 1018.8 3.6
30/07:00am 22.8 24.4 21.4 92 0.9 SE 15 26 8 14 1018.5 1018.5 3.6
30/06:30am 23.2 24.6 21.8 92 0.9 ESE 17 26 9 14 1018.1 1018.1 3.4
30/05:30am 22.5 24.6 21.7 95 0.5 SE 13 19 7 10 1017.7 1017.7 3.4
30/05:00am 22.1 24.3 21.1 94 0.7 ESE 11 17 6 9 1017.6 1017.6 1.6
30/04:30am 22.5 24.4 21.3 93 0.8 S 13 22 7 12 1017.5 1017.5 0.4
30/04:00am 22.9 24.5 21.4 91 1.0 S 15 20 8 11 1017.5 1017.5 0.4
30/03:30am 22.7 23.4 21.2 91 1.0 S 19 24 10 13 1017.6 1017.6 0.4
30/03:00am 22.7 24.5 21.2 91 1.0 SE 13 26 7 14 1017.9 1017.9 0.2
30/02:30am 23.5 25.2 21.0 86 1.6 SSE 13 24 7 13 1018.0 1018.0 0.0
30/02:00am 23.6 24.5 20.9 85 1.8 SE 17 26 9 14 1018.2 1018.2 0.0
30/01:30am 23.8 25.5 20.9 84 1.9 SSE 13 22 7 12 1018.4 1018.4 0.0
30/01:00am 23.9 25.2 20.8 83 2.0 SE 15 24 8 13 1018.8 1018.8 0.0
30/12:30am 24.0 25.7 20.9 83 2.0 SSE 13 22 7 12 1019.3 1019.3 0.0
30/12:00am 24.0 24.4 20.7 82 2.1 SE 19 28 10 15 1019.5 1019.4 0.0
 
Date/Time
EST
Temp
°C
App
Temp
°C
Dew
Point
Rel
Hum
%
Delta-T
°C
Wind Press
QNH
hPa
Press
MSL
hPa
Rain
since 9 am
mm
Dir
 
Spd
km/h
Gust
km/h
Spd
kts
Gust
kts
29/11:30pm 24.1 25.5 21.0 83 2.0 SE 15 26 8 14 1019.5 1019.5 0.0
29/11:00pm 24.0 25.0 21.1 84 1.9 SE 17 32 9 17 1019.6 1019.6 0.0
29/10:30pm 24.1 24.5 20.6 81 2.3 SE 19 30 10 16 1019.8 1019.8 0.0
29/10:00pm 24.2 24.2 20.9 82 2.2 SE 22 35 12 19 1019.7 1019.7 0.0
29/09:30pm 24.2 24.7 21.1 83 2.0 SE 20 32 11 17 1019.4 1019.4 0.0
29/09:00pm 24.2 24.5 20.7 81 2.3 SE 20 35 11 19 1019.2 1019.2 0.0
29/08:30pm 24.2 24.7 20.9 82 2.2 SE 19 30 10 16 1019.2 1019.2 0.0
29/08:00pm 24.3 24.7 20.6 80 2.4 SE 19 28 10 15 1019.2 1019.2 0.0
29/07:30pm 24.3 24.5 20.6 80 2.4 ESE 20 33 11 18 1018.9 1018.9 0.0
29/07:00pm 24.1 24.7 21.0 83 2.0 SE 19 28 10 15 1018.9 1018.9 0.0
29/06:30pm 24.2 24.2 20.1 78 2.7 SE 20 30 11 16 1018.6 1018.6 0.0
29/06:00pm 24.3 24.4 20.0 77 2.8 SE 19 30 10 16 1018.3 1018.3 0.0
29/05:30pm 24.3 24.7 20.6 80 2.4 ESE 19 32 10 17 1018.1 1018.1 0.0
29/05:00pm 24.4 24.4 20.1 77 2.8 SE 20 35 11 19 1018.0 1018.0 0.0
29/04:30pm 24.6 25.0 20.7 79 2.6 SE 19 28 10 15 1017.7 1017.7 0.0
29/04:00pm 24.5 24.7 20.2 77 2.8 SE 19 28 10 15 1017.4 1017.4 0.0
29/03:30pm 24.6 24.9 20.3 77 2.8 SE 19 28 10 15 1017.4 1017.4 0.0
29/03:00pm 24.7 24.6 20.0 75 3.0 SE 20 33 11 18 1017.4 1017.4 0.0
29/02:30pm 24.8 25.5 20.5 77 2.8 SE 17 32 9 17 1017.5 1017.5 0.0
29/02:00pm 24.8 24.5 19.6 73 3.3 SE 20 33 11 18 1017.5 1017.5 0.0
29/01:30pm 25.0 24.7 20.3 75 3.1 SE 22 33 12 18 1017.8 1017.8 0.0
29/01:00pm 24.9 23.8 20.2 75 3.0 ESE 26 37 14 20 1018.2 1018.2 0.0
29/12:30pm 24.7 23.8 20.6 78 2.7 ESE 26 35 14 19 1018.8 1018.8 0.0
29/12:00pm 24.3 23.8 20.8 81 2.3 SE 24 32 13 17 1019.3 1019.3 0.0
29/11:30am 24.4 24.6 20.5 79 2.5 SE 20 33 11 18 1019.6 1019.6 0.0
29/11:00am 24.3 25.9 20.8 81 2.3 SSE 13 24 7 13 1020.0 1020.0 0.0
29/10:30am 23.8 25.0 20.7 83 2.0 SSE 15 28 8 15 1020.2 1020.2 0.0
29/10:00am 23.8 24.5 20.5 82 2.1 S 17 28 9 15 1020.5 1020.5 0.0
29/09:30am 23.2 22.3 20.7 86 1.6 S 26 30 14 16 1020.4 1020.4 0.0
29/09:00am 23.4 24.0 20.3 83 2.0 S 17 26 9 14 1020.3 1020.3 -
29/08:30am 24.0 25.5 20.5 81 2.3 SSE 13 22 7 12 1019.8 1019.8 -
29/08:00am 23.7 25.1 20.4 82 2.1 SSE 13 24 7 13 1019.6 1019.6 -
29/07:30am 24.0 24.8 20.7 82 2.2 SSE 17 26 9 14 1019.4 1019.4 -
29/07:00am 23.5 23.2 20.4 83 2.0 SE 22 41 12 22 1019.0 1019.0 -
29/06:30am 23.3 25.0 21.0 87 1.5 S 13 20 7 11 1019.0 1019.0 -
29/06:00am 23.6 23.7 20.3 82 2.1 SE 20 32 11 17 1018.7 1018.7 -
29/05:30am 23.3 21.9 19.7 80 2.3 SE 26 39 14 21 1018.3 1018.3 -
29/05:08am 22.7 21.2 20.2 86 1.6 ESE 28 46 15 25 1018.1 1018.1 -
29/05:00am 24.0 23.7 19.5 76 2.9 ESE 20 35 11 19 1018.1 1018.1 -
29/04:30am 23.4 21.5 20.1 82 2.1 ESE 30 44 16 24 1018.1 1018.1 -
29/04:00am 24.0 23.9 20.7 82 2.2 SE 22 44 12 24 1018.1 1018.1 -
29/03:30am 24.0 23.9 19.9 78 2.6 SE 20 35 11 19 1018.1 1018.1 -
29/03:00am 24.0 23.2 20.1 79 2.5 ESE 24 43 13 23 1018.0 1018.0 2.0
29/02:30am 23.1 22.7 20.1 83 1.9 SE 22 35 12 19 1018.4 1018.4 -
29/02:00am 22.8 22.6 20.5 87 1.5 SE 22 39 12 21 1018.6 1018.6 -
29/01:30am 23.4 23.6 20.5 84 1.9 SE 20 35 11 19 1018.8 1018.8 -
29/01:00am 22.8 22.0 20.1 85 1.7 SE 24 44 13 24 1019.0 1019.0 -
29/12:47am 22.5 21.1 20.4 88 1.4 ESE 28 54 15 29 1019.0 1019.0 -
29/12:30am 22.7 22.2 20.8 89 1.2 ESE 24 39 13 21 1019.0 1019.0 -
29/12:00am 22.8 23.1 21.6 93 0.8 ENE 22 30 12 16 1019.2 1019.2 -
 
Date/Time
EST
Temp
°C
App
Temp
°C
Dew
Point
Rel
Hum
%
Delta-T
°C
Wind Press
QNH
hPa
Press
MSL
hPa
Rain
since 9 am
mm
Dir
 
Spd
km/h
Gust
km/h
Spd
kts
Gust
kts
28/11:30pm 22.5 21.4 21.1 92 0.9 NE 28 39 15 21 1019.1 1019.1 -
28/11:10pm 23.6 23.4 20.5 83 2.0 SE 22 50 12 27 1019.3 1019.3 -
28/11:00pm 23.8 24.3 20.9 84 1.9 ESE 19 39 10 21 1019.4 1019.4 -
28/10:30pm 23.4 23.9 20.9 86 1.6 SE 19 28 10 15 1019.6 1019.6 -
28/10:00pm 23.5 24.4 20.8 85 1.8 SE 17 30 9 16 1019.6 1019.6 -
28/09:30pm 23.4 23.5 20.3 83 2.0 SE 20 35 11 19 1019.5 1019.5 -
28/09:00pm 23.5 23.0 20.8 85 1.8 SE 24 41 13 22 1019.5 1019.5 -
28/08:30pm 24.0 24.0 20.9 83 2.0 ESE 22 35 12 19 1019.3 1019.3 -
28/08:00pm 24.0 24.5 20.9 83 2.0 SE 19 35 10 19 1018.9 1018.9 -
28/07:30pm 24.0 24.4 20.9 83 2.0 ESE 20 33 11 18 1018.7 1018.7 0.0
28/07:00pm 24.0 24.5 21.1 84 1.9 SE 20 41 11 22 1018.4 1018.4 0.0
28/06:30pm 24.1 24.4 20.8 82 2.2 SE 20 35 11 19 1018.0 1018.0 0.0
28/06:00pm 23.9 24.2 20.8 83 2.0 SE 20 35 11 19 1017.8 1017.8 0.0
28/05:30pm 24.0 24.1 20.3 80 2.4 SE 20 32 11 17 1017.5 1017.5 0.0
28/05:00pm 24.1 23.8 20.4 80 2.4 SE 22 32 12 17 1017.5 1017.5 0.0
28/04:30pm 24.1 24.1 20.2 79 2.5 SE 20 33 11 18 1017.4 1017.4 0.0
28/04:00pm 24.3 23.9 20.2 78 2.7 SE 22 33 12 18 1017.4 1017.4 0.0
28/03:30pm 24.5 25.1 20.2 77 2.8 SE 17 26 9 14 1017.2 1017.2 0.0
28/03:00pm 24.7 25.6 20.0 75 3.0 SE 15 32 8 17 1017.3 1017.3 0.0
28/02:30pm 23.7 23.8 20.4 82 2.1 S 20 28 11 15 1017.4 1017.4 0.0
28/02:00pm 23.9 23.3 20.4 81 2.3 S 24 28 13 15 1017.4 1017.4 0.0
28/01:30pm 23.8 23.4 20.1 80 2.4 S 22 26 12 14 1017.7 1017.7 0.0
28/01:00pm 23.4 22.2 20.1 82 2.1 S 26 30 14 16 1018.0 1018.0 0.0
28/12:30pm 23.6 23.7 19.9 80 2.4 S 19 22 10 12 1018.3 1018.3 0.0
28/12:00pm 23.3 23.3 19.7 80 2.3 S 19 24 10 13 1018.8 1018.8 0.0
28/11:30am 23.2 22.9 19.6 80 2.3 S 20 24 11 13 1019.0 1019.0 0.0
28/11:00am 22.7 21.3 18.9 79 2.4 S 24 28 13 15 1019.5 1019.5 0.0
28/10:30am 22.8 21.6 19.2 80 2.3 S 24 30 13 16 1019.8 1019.8 0.0
28/10:00am 23.2 22.9 19.6 80 2.3 S 20 26 11 14 1020.0 1020.0 0.0
28/09:30am 23.0 21.9 19.4 80 2.3 S 24 30 13 16 1020.0 1020.0 0.0
28/09:00am 22.9 21.6 19.1 79 2.4 S 24 32 13 17 1020.0 1020.0 0.0
28/08:30am 23.2 23.4 19.4 79 2.4 S 17 24 9 13 1019.8 1019.8 0.0
28/08:00am 22.9 22.8 19.5 81 2.2 S 19 26 10 14 1019.4 1019.4 0.0
28/07:30am 22.8 22.6 19.4 81 2.2 S 19 28 10 15 1019.2 1019.2 0.0
28/07:00am 22.7 22.6 19.5 82 2.0 S 19 28 10 15 1018.8 1018.8 0.0
28/06:30am 22.8 22.7 19.6 82 2.0 S 19 28 10 15 1018.4 1018.4 0.0
28/06:00am 22.9 23.0 19.9 83 1.9 S 19 28 10 15 1018.1 1018.1 0.0
28/05:30am 23.2 23.5 19.6 80 2.3 S 17 26 9 14 1017.7 1017.7 0.0
28/05:00am 23.7 23.0 19.4 77 2.7 SE 22 39 12 21 1017.4 1017.4 0.0
28/04:30am 23.9 23.0 19.0 74 3.1 SE 22 39 12 21 1017.2 1017.2 0.0
28/04:00am 23.9 23.8 19.6 77 2.8 SE 19 32 10 17 1017.4 1017.4 0.0
28/03:30am 24.0 23.5 19.1 74 3.1 SE 20 35 11 19 1017.3 1017.3 0.0
28/03:00am 24.1 24.4 19.6 76 2.9 SE 17 32 9 17 1017.4 1017.4 0.0
28/02:30am 24.0 23.7 19.1 74 3.1 SE 19 32 10 17 1017.5 1017.5 0.0
28/02:00am 24.0 23.8 19.3 75 3.0 SE 19 30 10 16 1017.4 1017.4 0.0
28/01:30am 24.1 23.8 19.6 76 2.9 SE 20 33 11 18 1017.7 1017.7 0.0
28/01:00am 24.1 23.9 19.8 77 2.8 ESE 20 30 11 16 1017.8 1017.8 0.0
28/12:30am 24.1 24.3 19.4 75 3.0 SE 17 28 9 15 1017.8 1017.8 0.0
28/12:00am 24.1 23.8 19.2 74 3.1 ESE 19 32 10 17 1018.0 1018.0 0.0
 
Date/Time
EST
Temp
°C
App
Temp
°C
Dew
Point
Rel
Hum
%
Delta-T
°C
Wind Press
QNH
hPa
Press
MSL
hPa
Rain
since 9 am
mm
Dir
 
Spd
km/h
Gust
km/h
Spd
kts
Gust
kts
27/11:30pm 24.2 24.1 19.5 75 3.0 SE 19 28 10 15 1018.3 1018.3 0.0
27/11:00pm 24.1 24.5 19.8 77 2.8 ESE 17 32 9 17 1018.5 1018.5 0.0
27/10:30pm 24.1 24.5 19.8 77 2.8 ESE 17 30 9 16 1018.8 1018.8 0.0
27/10:00pm 24.1 24.5 19.8 77 2.8 SSE 17 28 9 15 1019.0 1019.0 0.0
27/09:30pm 24.1 24.3 20.2 79 2.5 SE 19 32 10 17 1019.0 1019.0 0.0
27/09:00pm 24.1 24.1 20.2 79 2.5 SE 20 37 11 20 1018.9 1018.9 0.0

Other Formats:

Comma delimited format used in spreadsheet applications
http://www.bom.gov.au/fwo/IDQ60801/IDQ60801.94295.axf

JavaScript Object Notation format (JSON) in row-major order
http://www.bom.gov.au/fwo/IDQ60801/IDQ60801.94295.json